createdAt,value
2022-09-17T00:02:03.261Z,12.10
2022-09-17T00:04:34.307Z,12.10
2022-09-17T00:07:05.235Z,12.10
2022-09-17T00:09:36.327Z,12.10
2022-09-17T00:12:07.361Z,12.10
2022-09-17T00:14:38.362Z,12.10
2022-09-17T00:17:09.296Z,12.10
2022-09-17T00:19:40.526Z,12.10
2022-09-17T00:22:11.352Z,12.10
2022-09-17T00:24:42.389Z,12.10
2022-09-17T00:27:13.217Z,12.10
2022-09-17T00:29:44.066Z,12.00
2022-09-17T00:32:15.039Z,12.00
2022-09-17T00:34:46.685Z,12.00
2022-09-17T00:37:18.710Z,12.00
2022-09-17T00:39:50.376Z,12.00
2022-09-17T00:42:22.901Z,12.00
2022-09-17T00:44:57.891Z,11.90
2022-09-17T00:47:37.503Z,12.00
2022-09-17T00:50:20.120Z,12.00
2022-09-17T00:52:56.753Z,12.00
2022-09-17T00:55:39.210Z,12.00
2022-09-17T00:58:13.137Z,12.00
2022-09-17T01:00:44.057Z,12.00
2022-09-17T01:03:15.114Z,12.00
2022-09-17T01:06:09.945Z,11.90
2022-09-17T01:09:25.536Z,11.90
2022-09-17T01:12:02.916Z,11.90
2022-09-17T01:15:26.299Z,11.80
2022-09-17T01:18:24.818Z,11.80
2022-09-17T01:21:20.409Z,11.80
2022-09-17T01:24:45.785Z,11.80
2022-09-17T01:27:55.126Z,11.80
2022-09-17T01:31:13.676Z,11.70
2022-09-17T01:34:16.893Z,11.70
2022-09-17T01:37:04.774Z,11.60
2022-09-17T01:40:00.965Z,11.60
2022-09-17T01:43:18.033Z,11.60
2022-09-17T01:45:53.262Z,11.60
2022-09-17T01:48:33.961Z,11.60
2022-09-17T01:51:17.100Z,11.70
2022-09-17T01:54:01.261Z,11.70
2022-09-17T01:56:43.085Z,11.70
2022-09-17T01:59:22.327Z,11.70
2022-09-17T02:01:59.967Z,11.70
2022-09-17T02:04:54.317Z,11.70
2022-09-17T02:07:26.064Z,11.60
2022-09-17T02:10:06.944Z,11.60
2022-09-17T02:12:45.580Z,11.60
2022-09-17T02:15:25.570Z,11.60
2022-09-17T02:18:28.505Z,11.60
2022-09-17T02:21:12.482Z,11.50
2022-09-17T02:24:00.921Z,11.50
2022-09-17T02:26:33.001Z,11.50
2022-09-17T02:29:13.077Z,11.50
2022-09-17T02:31:43.997Z,11.60
2022-09-17T02:34:15.455Z,11.60
2022-09-17T02:36:46.891Z,11.60
2022-09-17T02:39:17.794Z,11.60
2022-09-17T02:42:26.573Z,11.60
2022-09-17T02:45:42.779Z,11.60
2022-09-17T02:48:56.944Z,11.60
2022-09-17T02:52:04.915Z,11.50
2022-09-17T02:54:52.492Z,11.50
2022-09-17T02:57:40.670Z,11.50
2022-09-17T03:00:23.323Z,11.50
2022-09-17T03:02:59.813Z,11.50
2022-09-17T03:05:32.162Z,11.50
2022-09-17T03:08:03.109Z,11.50
2022-09-17T03:10:33.951Z,11.50
2022-09-17T03:13:04.890Z,11.50
2022-09-17T03:15:35.803Z,11.60
2022-09-17T03:18:07.037Z,11.60
2022-09-17T03:20:38.075Z,11.60
2022-09-17T03:23:08.931Z,11.60
2022-09-17T03:25:39.812Z,11.50
2022-09-17T03:28:10.654Z,11.50
2022-09-17T03:30:43.592Z,11.50
2022-09-17T03:33:14.775Z,11.40
2022-09-17T03:35:46.422Z,11.30
2022-09-17T03:38:17.602Z,11.30
2022-09-17T03:41:05.026Z,11.30
2022-09-17T03:43:36.219Z,11.30
2022-09-17T03:46:07.467Z,11.30
2022-09-17T03:48:39.754Z,11.20
2022-09-17T03:51:10.858Z,11.20
2022-09-17T03:53:41.733Z,11.20
2022-09-17T03:56:12.606Z,11.20
2022-09-17T03:58:43.502Z,11.20
2022-09-17T04:01:14.873Z,11.20
2022-09-17T04:03:46.016Z,11.20
2022-09-17T04:06:16.849Z,11.20
2022-09-17T04:08:47.788Z,11.20
2022-09-17T04:11:18.626Z,11.20
2022-09-17T04:13:49.853Z,11.20
2022-09-17T04:16:20.784Z,11.10
2022-09-17T04:18:51.661Z,11.20
2022-09-17T04:21:22.495Z,11.10
2022-09-17T04:23:53.605Z,11.00
2022-09-17T04:26:24.498Z,11.00
2022-09-17T04:28:55.400Z,10.90
2022-09-17T04:31:27.387Z,10.90
2022-09-17T04:33:58.427Z,10.90
2022-09-17T04:36:29.296Z,10.90
2022-09-17T04:39:00.368Z,10.90
2022-09-17T04:41:31.210Z,10.90
2022-09-17T04:44:02.326Z,10.90
2022-09-17T04:46:33.253Z,10.80
2022-09-17T04:49:04.185Z,10.80
2022-09-17T04:51:35.401Z,10.80
2022-09-17T04:54:06.674Z,10.90
2022-09-17T04:56:37.509Z,10.90
2022-09-17T04:59:08.454Z,10.90
2022-09-17T05:01:39.486Z,10.80
2022-09-17T05:04:11.146Z,10.90
2022-09-17T05:06:42.259Z,10.90
2022-09-17T05:09:14.104Z,10.90
2022-09-17T05:11:45.187Z,10.90
2022-09-17T05:14:16.123Z,10.90
2022-09-17T05:16:46.976Z,10.90
2022-09-17T05:19:17.917Z,10.90
2022-09-17T05:21:48.773Z,10.80
2022-09-17T05:24:19.666Z,10.90
2022-09-17T05:26:50.605Z,10.90
2022-09-17T05:29:21.492Z,10.80
2022-09-17T05:31:52.326Z,10.80
2022-09-17T05:34:23.225Z,10.80
2022-09-17T05:36:54.168Z,10.80
2022-09-17T05:39:28.878Z,10.80
2022-09-17T05:41:59.793Z,10.80
2022-09-17T05:44:30.682Z,10.80
2022-09-17T05:47:01.655Z,10.80
2022-09-17T05:49:32.672Z,10.70
2022-09-17T05:52:03.927Z,10.70
2022-09-17T05:54:34.789Z,10.70
2022-09-17T05:57:06.329Z,10.70
2022-09-17T05:59:37.305Z,10.70
2022-09-17T06:02:09.623Z,10.70
2022-09-17T06:04:40.671Z,10.80
2022-09-17T06:07:11.588Z,10.80
2022-09-17T06:09:42.581Z,10.90
2022-09-17T06:12:13.423Z,10.80
2022-09-17T06:14:44.272Z,10.90
2022-09-17T06:17:17.979Z,11.00
2022-09-17T06:19:52.480Z,11.00
2022-09-17T06:22:23.402Z,11.00
2022-09-17T06:24:54.366Z,11.00
2022-09-17T06:27:33.579Z,11.00
2022-09-17T06:30:06.069Z,11.00
2022-09-17T06:32:36.907Z,11.00
2022-09-17T06:35:08.583Z,11.00
2022-09-17T06:37:40.843Z,11.00
2022-09-17T06:40:11.909Z,11.00
2022-09-17T06:42:42.780Z,11.00
2022-09-17T06:45:16.797Z,11.10
2022-09-17T06:47:47.909Z,11.20
2022-09-17T06:50:19.297Z,11.20
2022-09-17T06:52:54.634Z,11.20
2022-09-17T06:55:25.515Z,11.10
2022-09-17T06:58:00.663Z,11.10
2022-09-17T07:00:31.657Z,11.10
2022-09-17T07:03:03.193Z,11.10
2022-09-17T07:05:34.077Z,11.10
2022-09-17T07:08:05.275Z,11.00
2022-09-17T07:10:37.494Z,11.10
2022-09-17T07:13:08.361Z,11.10
2022-09-17T07:15:39.348Z,11.00
2022-09-17T07:18:11.727Z,11.00
2022-09-17T07:20:42.585Z,10.90
2022-09-17T07:23:13.407Z,10.70
2022-09-17T07:25:44.266Z,10.60
2022-09-17T07:28:15.113Z,10.60
2022-09-17T07:30:46.006Z,10.60
2022-09-17T07:33:19.386Z,10.50
2022-09-17T07:36:02.034Z,10.30
2022-09-17T07:38:34.167Z,10.30
2022-09-17T07:41:13.409Z,10.30
2022-09-17T07:43:45.069Z,10.10
2022-09-17T07:46:18.967Z,10.20
2022-09-17T07:48:51.405Z,10.20
2022-09-17T07:51:25.777Z,10.20
2022-09-17T07:53:59.330Z,10.10
2022-09-17T07:56:30.435Z,10.10
2022-09-17T07:59:03.920Z,10.00
2022-09-17T08:01:36.493Z,10.00
2022-09-17T08:04:07.851Z,10.00
2022-09-17T08:06:40.287Z,10.10
2022-09-17T08:09:11.738Z,10.20
2022-09-17T08:11:58.567Z,10.30
2022-09-17T08:14:30.139Z,10.30
2022-09-17T08:17:01.088Z,10.40
2022-09-17T08:19:32.939Z,10.40
2022-09-17T08:22:03.820Z,10.40
2022-09-17T08:24:34.716Z,10.50
2022-09-17T08:27:05.588Z,10.50
2022-09-17T08:29:36.443Z,10.50
2022-09-17T08:32:07.281Z,10.60
2022-09-17T08:34:38.246Z,10.60
2022-09-17T08:37:09.084Z,10.70
2022-09-17T08:39:39.997Z,10.70
2022-09-17T08:42:37.785Z,10.90
2022-09-17T08:45:19.091Z,10.90
2022-09-17T08:47:50.446Z,11.00
2022-09-17T08:50:30.033Z,11.10
2022-09-17T08:53:34.924Z,11.20
2022-09-17T08:56:19.384Z,11.30
2022-09-17T08:59:22.453Z,11.50
2022-09-17T09:02:04.281Z,11.50
2022-09-17T09:05:05.496Z,11.60
2022-09-17T09:07:52.809Z,11.60
2022-09-17T09:10:28.461Z,11.70
2022-09-17T09:13:00.806Z,11.70
2022-09-17T09:15:45.040Z,11.70
2022-09-17T09:18:29.550Z,11.80
2022-09-17T09:21:29.613Z,11.80
2022-09-17T09:24:21.973Z,11.80
2022-09-17T09:27:24.051Z,11.90
2022-09-17T09:30:06.676Z,11.90
2022-09-17T09:33:00.844Z,11.90
2022-09-17T09:35:36.666Z,11.90
2022-09-17T09:38:33.950Z,12.00
2022-09-17T09:41:40.567Z,12.00
2022-09-17T09:44:15.619Z,12.00
2022-09-17T09:47:04.443Z,12.20
2022-09-17T09:50:17.134Z,12.20
2022-09-17T09:53:06.060Z,12.20
2022-09-17T09:56:34.434Z,12.30
2022-09-17T09:59:11.858Z,12.40
2022-09-17T10:01:45.183Z,12.50
2022-09-17T10:04:27.485Z,12.50
2022-09-17T10:07:07.950Z,12.60
2022-09-17T10:09:46.369Z,12.60
2022-09-17T10:12:18.478Z,12.50
2022-09-17T10:14:49.396Z,12.60
2022-09-17T10:17:26.219Z,12.60
2022-09-17T10:19:59.888Z,12.70
2022-09-17T10:22:44.163Z,12.70
2022-09-17T10:25:28.727Z,12.60
2022-09-17T10:28:06.203Z,12.60
2022-09-17T10:30:37.102Z,12.60
2022-09-17T10:33:26.395Z,12.70
2022-09-17T10:36:01.264Z,12.90
2022-09-17T10:38:41.394Z,13.00
2022-09-17T10:41:18.167Z,13.10
2022-09-17T10:43:52.630Z,13.10
2022-09-17T10:46:29.216Z,13.30
2022-09-17T10:49:36.642Z,13.50
2022-09-17T10:52:48.891Z,13.70
2022-09-17T10:55:45.554Z,14.00
2022-09-17T10:58:43.648Z,14.10
2022-09-17T11:01:23.432Z,14.00
2022-09-17T11:04:16.386Z,14.30
2022-09-17T11:07:57.871Z,14.90
2022-09-17T11:10:38.413Z,14.80
2022-09-17T11:13:23.563Z,14.50
2022-09-17T11:16:22.630Z,14.30
2022-09-17T11:19:24.085Z,14.20
2022-09-17T11:22:15.055Z,14.10
2022-09-17T11:25:44.267Z,14.30
2022-09-17T11:28:32.241Z,14.70
2022-09-17T11:31:49.706Z,14.80
2022-09-17T11:34:43.349Z,14.70
2022-09-17T11:37:31.657Z,14.60
2022-09-17T11:40:34.185Z,14.40
2022-09-17T11:43:25.454Z,14.30
2022-09-17T11:46:07.879Z,14.20
2022-09-17T11:49:22.385Z,14.50
2022-09-17T11:52:04.357Z,14.80
2022-09-17T11:54:49.111Z,14.90
2022-09-17T11:57:27.019Z,14.80
2022-09-17T12:00:16.316Z,14.90
2022-09-17T12:03:06.912Z,15.10
2022-09-17T12:05:48.662Z,15.00
2022-09-17T12:09:16.128Z,14.90
2022-09-17T12:12:06.933Z,14.40
2022-09-17T12:14:49.282Z,14.00
2022-09-17T12:17:28.926Z,14.00
2022-09-17T12:20:10.094Z,14.00
2022-09-17T12:22:44.520Z,14.00
2022-09-17T12:25:15.478Z,13.70
2022-09-17T12:28:06.339Z,13.30
2022-09-17T12:30:44.420Z,13.00
2022-09-17T12:33:38.600Z,12.90
2022-09-17T12:36:27.637Z,12.50
2022-09-17T12:39:34.824Z,12.20
2022-09-17T12:42:42.651Z,12.20
2022-09-17T12:45:22.505Z,12.30
2022-09-17T12:48:21.800Z,12.60
2022-09-17T12:51:10.613Z,12.90
2022-09-17T12:54:13.694Z,12.90
2022-09-17T12:57:29.313Z,13.00
2022-09-17T13:00:08.168Z,12.80
2022-09-17T13:03:01.991Z,12.60
2022-09-17T13:06:09.563Z,12.50
2022-09-17T13:09:27.160Z,12.40
2022-09-17T13:12:31.442Z,12.30
2022-09-17T13:15:39.902Z,12.40
2022-09-17T13:18:27.775Z,12.40
2022-09-17T13:21:16.651Z,12.50
2022-09-17T13:23:50.413Z,12.60
2022-09-17T13:26:34.424Z,12.70
2022-09-17T13:29:09.960Z,12.70
2022-09-17T13:31:44.677Z,12.70
2022-09-17T13:34:18.973Z,12.70
2022-09-17T13:36:54.798Z,12.80
2022-09-17T13:39:45.542Z,12.70
2022-09-17T13:42:45.713Z,12.70
2022-09-17T13:45:19.194Z,12.80
2022-09-17T13:48:11.790Z,13.00
2022-09-17T13:50:44.882Z,13.20
2022-09-17T13:53:15.730Z,13.40
2022-09-17T13:55:55.348Z,13.50
2022-09-17T13:58:31.020Z,13.50
2022-09-17T14:01:06.739Z,13.40
2022-09-17T14:03:48.509Z,13.60
2022-09-17T14:06:21.126Z,13.80
2022-09-17T14:08:57.916Z,13.80
2022-09-17T14:11:29.288Z,13.80
2022-09-17T14:14:26.252Z,13.80
2022-09-17T14:16:57.164Z,13.80
2022-09-17T14:19:51.268Z,13.80
2022-09-17T14:22:27.175Z,13.90
2022-09-17T14:24:59.055Z,14.10
2022-09-17T14:27:55.911Z,14.20
2022-09-17T14:30:31.073Z,14.20
2022-09-17T14:33:06.826Z,14.20
2022-09-17T14:36:06.392Z,14.20
2022-09-17T14:38:38.560Z,14.40
2022-09-17T14:41:12.418Z,14.80
2022-09-17T14:43:53.006Z,15.10
2022-09-17T14:46:32.190Z,15.10
2022-09-17T14:49:23.168Z,15.00
2022-09-17T14:51:56.631Z,14.80
2022-09-17T14:54:32.466Z,14.80
2022-09-17T14:57:09.311Z,15.00
2022-09-17T14:59:57.454Z,15.00
2022-09-17T15:02:37.630Z,14.80
2022-09-17T15:05:34.143Z,15.00
2022-09-17T15:08:11.313Z,15.30
2022-09-17T15:11:04.140Z,15.50
2022-09-17T15:13:50.449Z,15.60
2022-09-17T15:16:30.729Z,15.80
2022-09-17T15:19:03.785Z,15.80
2022-09-17T15:21:35.861Z,15.50
2022-09-17T15:24:53.070Z,15.20
2022-09-17T15:27:45.113Z,14.90
2022-09-17T15:30:25.450Z,14.70
2022-09-17T15:32:58.582Z,14.60
2022-09-17T15:35:34.123Z,14.50
2022-09-17T15:38:26.053Z,14.40
2022-09-17T15:41:23.648Z,14.30
2022-09-17T15:44:03.711Z,14.20
2022-09-17T15:46:44.397Z,14.30
2022-09-17T15:49:35.203Z,14.50
2022-09-17T15:52:31.250Z,14.50
2022-09-17T15:55:02.565Z,14.30
2022-09-17T15:57:33.727Z,14.30
2022-09-17T16:00:15.472Z,14.60
2022-09-17T16:02:46.590Z,14.90
2022-09-17T16:05:17.613Z,15.10
2022-09-17T16:07:48.589Z,14.90
2022-09-17T16:10:19.983Z,14.60
2022-09-17T16:12:50.994Z,14.40
2022-09-17T16:15:21.860Z,14.30
2022-09-17T16:17:52.959Z,14.20
2022-09-17T16:20:25.455Z,14.20
2022-09-17T16:22:57.338Z,14.20
2022-09-17T16:25:29.207Z,14.20
2022-09-17T16:28:10.756Z,14.30
2022-09-17T16:30:46.135Z,14.60
2022-09-17T16:33:18.939Z,14.80
2022-09-17T16:35:49.888Z,14.90
2022-09-17T16:38:20.811Z,14.90
2022-09-17T16:40:51.950Z,14.90
2022-09-17T16:43:23.306Z,14.70
2022-09-17T16:46:10.517Z,14.70
2022-09-17T16:48:43.670Z,14.60
2022-09-17T16:51:14.602Z,14.50
2022-09-17T16:53:45.840Z,14.40
2022-09-17T16:56:16.883Z,14.30
2022-09-17T16:58:47.805Z,14.20
2022-09-17T17:01:18.734Z,14.20
2022-09-17T17:03:52.926Z,14.20
2022-09-17T17:06:23.764Z,14.20
2022-09-17T17:08:54.708Z,14.30
2022-09-17T17:11:26.099Z,14.30
2022-09-17T17:13:57.388Z,14.20
2022-09-17T17:16:30.772Z,14.20
2022-09-17T17:19:01.745Z,14.10
2022-09-17T17:21:32.853Z,13.50
2022-09-17T17:24:04.023Z,12.40
2022-09-17T17:26:35.067Z,11.80
2022-09-17T17:29:05.944Z,11.40
2022-09-17T17:31:37.730Z,11.20
2022-09-17T17:34:09.079Z,11.10
2022-09-17T17:36:40.045Z,11.00
2022-09-17T17:39:11.070Z,10.90
2022-09-17T17:41:42.096Z,10.90
2022-09-17T17:44:13.133Z,10.90
2022-09-17T17:46:46.729Z,11.00
2022-09-17T17:49:17.915Z,10.90
2022-09-17T17:51:49.119Z,10.80
2022-09-17T17:54:22.011Z,10.80
2022-09-17T17:56:53.063Z,10.90
2022-09-17T17:59:23.997Z,10.90
2022-09-17T18:01:54.968Z,11.00
2022-09-17T18:04:26.082Z,11.00
2022-09-17T18:06:56.936Z,11.30
2022-09-17T18:09:27.805Z,11.20
2022-09-17T18:11:58.680Z,11.30
2022-09-17T18:14:32.065Z,11.40
2022-09-17T18:17:03.014Z,11.40
2022-09-17T18:19:33.879Z,11.50
2022-09-17T18:22:04.813Z,11.50
2022-09-17T18:24:35.663Z,11.40
2022-09-17T18:27:06.560Z,11.40
2022-09-17T18:29:37.592Z,11.40
2022-09-17T18:32:08.457Z,11.40
2022-09-17T18:34:39.329Z,11.30
2022-09-17T18:37:10.198Z,11.20
2022-09-17T18:42:31.879Z,11.10
2022-09-17T18:45:02.919Z,11.10
2022-09-17T18:47:33.807Z,11.00
2022-09-17T18:50:05.033Z,11.10
2022-09-17T18:52:35.890Z,11.00
2022-09-17T18:55:07.829Z,11.00
2022-09-17T18:57:38.681Z,11.00
2022-09-17T19:00:11.623Z,11.00
2022-09-17T19:02:42.496Z,11.00
2022-09-17T19:05:13.752Z,11.00
2022-09-17T19:07:48.566Z,11.00
2022-09-17T19:10:19.414Z,10.90
2022-09-17T19:12:50.362Z,11.00
2022-09-17T19:15:24.076Z,11.00
2022-09-17T19:17:55.023Z,11.00
2022-09-17T19:20:26.148Z,10.80
2022-09-17T19:22:57.020Z,10.80
2022-09-17T19:25:28.135Z,10.60
2022-09-17T19:27:59.284Z,10.50
2022-09-17T19:30:30.983Z,10.40
2022-09-17T19:33:01.908Z,10.30
2022-09-17T19:35:32.756Z,10.20
2022-09-17T19:38:04.009Z,10.10
2022-09-17T19:40:36.141Z,10.10
2022-09-17T19:43:07.169Z,10.10
2022-09-17T19:45:38.005Z,10.00
2022-09-17T19:48:08.869Z,10.10
2022-09-17T19:50:39.707Z,10.10
2022-09-17T19:53:10.890Z,10.10
2022-09-17T19:55:43.617Z,10.10
2022-09-17T19:58:14.842Z,10.20
2022-09-17T20:00:46.126Z,10.20
2022-09-17T20:03:17.041Z,10.20
2022-09-17T20:05:48.050Z,10.30
2022-09-17T20:08:19.654Z,10.40
2022-09-17T20:10:50.976Z,10.40
2022-09-17T20:13:25.348Z,10.40
2022-09-17T20:16:04.678Z,10.40
2022-09-17T20:18:36.605Z,10.40
2022-09-17T20:21:17.196Z,10.40
2022-09-17T20:23:48.572Z,10.40
2022-09-17T20:26:20.467Z,10.50
2022-09-17T20:28:52.646Z,10.50
2022-09-17T20:31:27.688Z,10.50
2022-09-17T20:34:01.845Z,10.50
2022-09-17T20:36:35.552Z,10.50
2022-09-17T20:39:16.548Z,10.50
2022-09-17T20:41:50.823Z,10.50
2022-09-17T20:44:21.805Z,10.50
2022-09-17T20:46:52.772Z,10.50
2022-09-17T20:49:23.746Z,10.40
2022-09-17T20:51:54.587Z,10.50
2022-09-17T20:54:25.546Z,10.50
2022-09-17T20:56:56.440Z,10.50
2022-09-17T20:59:32.520Z,10.60
2022-09-17T21:02:03.665Z,10.40
2022-09-17T21:04:34.600Z,10.40
2022-09-17T21:07:05.502Z,10.20
2022-09-17T21:09:41.832Z,10.10
2022-09-17T21:12:12.964Z,9.90
2022-09-17T21:14:43.801Z,10.10
2022-09-17T21:17:14.638Z,10.00
2022-09-17T21:19:45.506Z,10.00
2022-09-17T21:22:16.559Z,10.10
2022-09-17T21:24:47.403Z,10.20
2022-09-17T21:27:18.246Z,10.20
2022-09-17T21:29:49.102Z,10.30
2022-09-17T21:32:19.958Z,10.30
2022-09-17T21:34:50.937Z,10.30
2022-09-17T21:37:21.815Z,10.30
2022-09-17T21:39:52.711Z,10.20
2022-09-17T21:42:23.635Z,10.20
2022-09-17T21:44:54.467Z,10.20
2022-09-17T21:47:25.298Z,10.20
2022-09-17T21:49:56.145Z,10.30
2022-09-17T21:52:29.938Z,10.30
2022-09-17T21:55:00.824Z,10.30
2022-09-17T21:57:31.685Z,10.40
2022-09-17T22:00:05.447Z,10.40
2022-09-17T22:02:36.482Z,10.40
2022-09-17T22:05:08.281Z,10.50
2022-09-17T22:07:39.124Z,10.60
2022-09-17T22:10:14.276Z,10.60
2022-09-17T22:12:45.147Z,10.60
2022-09-17T22:15:16.130Z,10.60
2022-09-17T22:17:46.986Z,10.60
2022-09-17T22:20:19.407Z,10.60
2022-09-17T22:22:50.295Z,10.70
2022-09-17T22:25:21.143Z,10.60
2022-09-17T22:28:16.833Z,10.60
2022-09-17T22:30:43.127Z,10.60
2022-09-17T22:33:13.988Z,10.60
2022-09-17T22:35:44.862Z,10.60
2022-09-17T22:38:15.728Z,10.50
2022-09-17T22:40:46.617Z,10.60
2022-09-17T22:43:17.517Z,10.60
2022-09-17T22:45:48.370Z,10.60
2022-09-17T22:48:19.215Z,10.60
2022-09-17T22:50:53.306Z,10.60
2022-09-17T22:53:24.212Z,10.60
2022-09-17T22:55:56.923Z,10.50
2022-09-17T22:58:28.312Z,10.60
2022-09-17T23:01:06.186Z,10.60
2022-09-17T23:03:37.890Z,10.60
2022-09-17T23:06:12.525Z,10.50
2022-09-17T23:08:43.616Z,10.60
2022-09-17T23:11:27.174Z,10.50
2022-09-17T23:14:02.320Z,10.60
2022-09-17T23:16:41.018Z,10.60
2022-09-17T23:19:12.981Z,10.60
2022-09-17T23:21:45.236Z,10.60
2022-09-17T23:24:20.975Z,10.60
2022-09-17T23:26:51.880Z,10.60
2022-09-17T23:29:22.816Z,10.70
2022-09-17T23:31:53.659Z,10.70
2022-09-17T23:34:24.510Z,10.80
2022-09-17T23:36:55.342Z,10.70
2022-09-17T23:39:26.683Z,10.80
2022-09-17T23:41:57.590Z,10.80
2022-09-17T23:44:28.510Z,10.80
2022-09-17T23:46:59.362Z,10.90
2022-09-17T23:49:30.253Z,10.90
2022-09-17T23:52:01.510Z,10.80
2022-09-17T23:54:32.607Z,10.80
2022-09-17T23:57:03.557Z,10.70
2022-09-17T23:59:34.413Z,10.70
